Time;durP1;ratioP1;P1;durP2;ratioP2;P2;SDS_P1;SDS_P2;PMS_P1;PMS_P2;Temp;Humidity;BMP_temperature;BMP_pressure;BME280_temperature;BME280_humidity;BME280_pressure;Samples;Min_cycle;Max_cycle;Signal;HPM_P1;HPM_P2
2022/09/08 00:00:29;;;;;;;;;0.33;0.33;;;;;;;;5040901;28;45298;-64
2022/09/08 00:02:55;;;;;;;;;1.00;1.00;;;;;;;;5039822;28;45311;-64
2022/09/08 00:05:22;;;;;;;;;2.00;2.00;;;;;;;;5038505;28;45310;-64
2022/09/08 00:07:49;;;;;;;;;1.00;1.00;;;;;;;;5041994;28;45521;-64
2022/09/08 00:10:15;;;;;;;;;1.00;1.00;;;;;;;;5037777;28;45499;-64
2022/09/08 00:12:41;;;;;;;;;1.00;1.00;;;;;;;;5042758;28;45393;-64
2022/09/08 00:15:06;;;;;;;;;1.00;1.00;;;;;;;;5036428;28;45528;-64
2022/09/08 00:17:32;;;;;;;;;2.00;2.00;;;;;;;;5042536;28;45409;-64
2022/09/08 00:19:57;;;;;;;;;1.00;1.00;;;;;;;;5035460;28;45633;-64
2022/09/08 00:22:22;;;;;;;;;3.33;2.33;;;;;;;;5042787;28;45350;-65
2022/09/08 00:24:48;;;;;;;;;2.00;1.00;;;;;;;;5049154;28;47966;-65
2022/09/08 00:27:13;;;;;;;;;6.00;3.00;;;;;;;;5042490;28;45342;-64
2022/09/08 00:29:38;;;;;;;;;5.67;2.00;;;;;;;;5041399;28;45224;-64
2022/09/08 00:32:03;;;;;;;;;1.00;1.00;;;;;;;;5038573;28;45379;-64
2022/09/08 00:34:28;;;;;;;;;2.00;2.00;;;;;;;;5040158;28;45381;-65
2022/09/08 00:36:56;;;;;;;;;2.00;2.00;;;;;;;;5035557;28;45368;-64
2022/09/08 00:39:22;;;;;;;;;2.00;2.00;;;;;;;;5051416;28;45405;-65
2022/09/08 00:41:47;;;;;;;;;1.33;1.33;;;;;;;;5034327;28;45310;-65
2022/09/08 00:44:31;;;;;;;;;1.33;1.33;;;;;;;;5037868;28;45352;-65
2022/09/08 00:46:56;;;;;;;;;4.00;2.00;;;;;;;;5030748;28;45353;-65
2022/09/08 00:49:22;;;;;;;;;3.00;1.33;;;;;;;;5041226;28;45230;-64
2022/09/08 00:51:49;;;;;;;;;1.00;1.00;;;;;;;;5042368;28;45222;-64
2022/09/08 00:54:16;;;;;;;;;0.67;0.67;;;;;;;;5048773;28;47116;-64
2022/09/08 00:56:42;;;;;;;;;5.67;2.33;;;;;;;;5038760;28;45409;-64
2022/09/08 00:59:07;;;;;;;;;1.00;1.00;;;;;;;;5041036;28;45448;-65
2022/09/08 01:01:33;;;;;;;;;2.00;2.00;;;;;;;;5036823;28;45313;-64
2022/09/08 01:03:58;;;;;;;;;1.00;1.00;;;;;;;;5041312;28;46335;-65
2022/09/08 01:14:52;;;;;;;;;2.33;1.00;;;;;;;;5038504;28;45710;-65
2022/09/08 01:17:23;;;;;;;;;1.00;1.00;;;;;;;;5045462;28;45219;-65
2022/09/08 01:19:49;;;;;;;;;2.00;2.00;;;;;;;;5037596;28;45518;-64
2022/09/08 01:22:20;;;;;;;;;2.00;0.67;;;;;;;;5045480;28;45571;-64
2022/09/08 01:24:48;;;;;;;;;1.00;1.00;;;;;;;;5047461;28;48410;-65
2022/09/08 01:27:31;;;;;;;;;1.00;1.00;;;;;;;;5045357;28;45213;-65
2022/09/08 01:30:02;;;;;;;;;1.33;1.00;;;;;;;;5044166;28;45503;-65
2022/09/08 01:32:45;;;;;;;;;1.00;1.00;;;;;;;;5041248;28;45436;-64
2022/09/08 01:35:25;;;;;;;;;2.33;1.00;;;;;;;;5041731;28;45516;-65
2022/09/08 01:37:51;;;;;;;;;1.67;1.67;;;;;;;;5041137;28;45503;-65
2022/09/08 01:40:16;;;;;;;;;0.00;0.00;;;;;;;;5039580;28;45306;-66
2022/09/08 01:42:41;;;;;;;;;1.00;1.00;;;;;;;;5039599;28;45313;-65
2022/09/08 01:45:07;;;;;;;;;1.33;1.33;;;;;;;;5037940;28;45516;-64
2022/09/08 01:47:32;;;;;;;;;3.00;1.00;;;;;;;;5037839;28;45242;-65
2022/09/08 01:49:58;;;;;;;;;2.67;2.00;;;;;;;;5043641;28;45532;-64
2022/09/08 01:52:24;;;;;;;;;1.67;1.67;;;;;;;;5045559;28;45387;-66
2022/09/08 01:54:50;;;;;;;;;1.67;1.67;;;;;;;;5050226;28;47053;-65
2022/09/08 01:57:15;;;;;;;;;1.00;1.00;;;;;;;;5044238;28;45221;-65
2022/09/08 01:59:40;;;;;;;;;2.33;1.33;;;;;;;;5041883;28;45529;-65
2022/09/08 02:02:05;;;;;;;;;1.33;1.33;;;;;;;;5042658;28;45695;-65
2022/09/08 02:04:30;;;;;;;;;0.00;0.00;;;;;;;;5042037;28;45431;-65
2022/09/08 02:06:56;;;;;;;;;1.00;1.00;;;;;;;;5043092;28;45409;-65
2022/09/08 02:09:21;;;;;;;;;1.00;1.00;;;;;;;;5042087;28;45225;-65
2022/09/08 02:11:48;;;;;;;;;1.33;1.33;;;;;;;;5042255;28;45196;-65
2022/09/08 02:14:13;;;;;;;;;3.67;2.67;;;;;;;;5042025;28;46166;-65
2022/09/08 02:16:38;;;;;;;;;4.00;2.00;;;;;;;;5040282;28;45297;-65
2022/09/08 02:19:03;;;;;;;;;1.00;1.00;;;;;;;;5042229;28;45321;-65
2022/09/08 02:21:29;;;;;;;;;1.00;1.00;;;;;;;;5039550;28;45460;-65
2022/09/08 02:23:55;;;;;;;;;2.67;1.00;;;;;;;;5041345;28;46598;-65
2022/09/08 02:26:21;;;;;;;;;3.00;1.67;;;;;;;;5036802;28;45357;-65
2022/09/08 02:28:47;;;;;;;;;2.00;2.00;;;;;;;;5042482;28;45547;-65
2022/09/08 02:31:13;;;;;;;;;3.00;1.00;;;;;;;;5039559;28;45322;-65
2022/09/08 02:33:40;;;;;;;;;1.00;1.00;;;;;;;;5041190;28;45332;-65
2022/09/08 02:36:05;;;;;;;;;2.00;2.00;;;;;;;;5036680;28;45176;-65
2022/09/08 02:38:30;;;;;;;;;1.33;1.00;;;;;;;;5041014;28;45373;-64
2022/09/08 02:40:57;;;;;;;;;2.00;2.00;;;;;;;;5034560;28;45423;-63
2022/09/08 02:43:22;;;;;;;;;1.33;1.33;;;;;;;;5057960;28;46896;-64
2022/09/08 02:45:48;;;;;;;;;1.67;1.67;;;;;;;;5044240;28;45386;-65
2022/09/08 02:48:13;;;;;;;;;3.00;2.00;;;;;;;;5041879;28;45608;-65
2022/09/08 02:50:39;;;;;;;;;2.00;2.00;;;;;;;;5044634;28;45425;-65
2022/09/08 02:53:04;;;;;;;;;2.00;2.00;;;;;;;;5030746;28;46289;-65
2022/09/08 02:55:29;;;;;;;;;2.00;2.00;;;;;;;;5042619;28;45298;-65
2022/09/08 02:57:55;;;;;;;;;2.33;1.33;;;;;;;;5041343;28;45281;-65
2022/09/08 03:00:20;;;;;;;;;1.67;1.67;;;;;;;;5041175;28;45498;-65
2022/09/08 03:02:46;;;;;;;;;3.00;1.00;;;;;;;;5039445;28;45469;-65
2022/09/08 03:05:11;;;;;;;;;1.00;0.33;;;;;;;;5042012;28;45334;-66
2022/09/08 03:07:39;;;;;;;;;2.00;2.00;;;;;;;;5037548;28;45294;-66
2022/09/08 03:10:05;;;;;;;;;1.00;1.00;;;;;;;;5037408;28;45263;-64
2022/09/08 03:12:31;;;;;;;;;1.00;1.00;;;;;;;;5043515;28;45933;-66
2022/09/08 03:14:56;;;;;;;;;2.67;2.67;;;;;;;;5035406;28;45839;-65
2022/09/08 03:17:21;;;;;;;;;0.00;0.00;;;;;;;;5043668;28;45322;-63
2022/09/08 03:19:47;;;;;;;;;3.00;1.00;;;;;;;;5034748;28;45143;-65
2022/09/08 03:22:12;;;;;;;;;1.00;1.00;;;;;;;;5042771;28;45407;-65
2022/09/08 03:24:38;;;;;;;;;3.33;0.00;;;;;;;;5037432;28;45585;-65
2022/09/08 03:27:03;;;;;;;;;3.67;2.00;;;;;;;;5043137;28;45249;-65
2022/09/08 03:29:29;;;;;;;;;3.00;3.00;;;;;;;;5037545;28;45646;-65
2022/09/08 03:31:54;;;;;;;;;2.00;2.00;;;;;;;;5038293;28;45469;-65
2022/09/08 03:34:19;;;;;;;;;4.67;2.00;;;;;;;;5039476;28;45394;-65
2022/09/08 03:36:45;;;;;;;;;3.00;2.00;;;;;;;;5035974;28;45384;-66
2022/09/08 03:39:10;;;;;;;;;1.00;1.00;;;;;;;;5039645;28;45487;-65
2022/09/08 03:41:35;;;;;;;;;4.33;2.67;;;;;;;;5034111;28;46194;-66
2022/09/08 03:44:00;;;;;;;;;2.00;2.00;;;;;;;;5038296;28;45902;-66
2022/09/08 03:46:26;;;;;;;;;3.00;3.00;;;;;;;;5032799;28;45543;-66
2022/09/08 03:48:51;;;;;;;;;2.67;2.67;;;;;;;;5040310;28;45471;-66
2022/09/08 03:51:17;;;;;;;;;4.00;2.00;;;;;;;;5042519;28;45525;-66
2022/09/08 03:53:44;;;;;;;;;1.00;1.00;;;;;;;;5040602;28;45234;-66
2022/09/08 03:56:10;;;;;;;;;4.67;3.67;;;;;;;;5042683;28;45415;-66
2022/09/08 03:58:36;;;;;;;;;7.00;5.67;;;;;;;;5056489;28;45376;-66
2022/09/08 04:01:06;;;;;;;;;3.33;2.00;;;;;;;;5039714;28;45231;-66
2022/09/08 04:03:31;;;;;;;;;3.00;2.00;;;;;;;;5040026;28;45305;-65
2022/09/08 04:05:58;;;;;;;;;2.00;2.00;;;;;;;;5037894;28;45433;-65
2022/09/08 04:08:23;;;;;;;;;2.00;2.00;;;;;;;;5042410;28;45360;-65
2022/09/08 04:10:48;;;;;;;;;4.33;3.00;;;;;;;;5036728;28;45758;-65
2022/09/08 04:13:13;;;;;;;;;3.67;3.67;;;;;;;;5055923;28;45280;-65
2022/09/08 04:15:39;;;;;;;;;3.00;3.00;;;;;;;;5035733;28;45391;-65
2022/09/08 04:18:04;;;;;;;;;1.00;1.00;;;;;;;;5042760;28;45369;-66
2022/09/08 04:20:29;;;;;;;;;4.00;2.33;;;;;;;;5034250;28;45642;-66
2022/09/08 04:22:55;;;;;;;;;3.00;3.00;;;;;;;;5041321;28;45301;-66
2022/09/08 04:25:22;;;;;;;;;1.67;1.67;;;;;;;;5042218;28;45717;-66
2022/09/08 04:27:48;;;;;;;;;5.00;3.33;;;;;;;;5042456;28;45461;-66
2022/09/08 04:30:14;;;;;;;;;2.67;1.00;;;;;;;;5040427;28;46125;-66
2022/09/08 04:32:39;;;;;;;;;5.00;3.33;;;;;;;;5037693;28;45451;-66
2022/09/08 04:35:04;;;;;;;;;2.00;2.00;;;;;;;;5039962;28;45447;-66
2022/09/08 04:37:30;;;;;;;;;3.00;3.00;;;;;;;;5035876;28;45232;-66
2022/09/08 04:39:55;;;;;;;;;4.00;2.67;;;;;;;;5037737;28;45471;-66
2022/09/08 04:42:23;;;;;;;;;2.67;2.67;;;;;;;;5033930;28;45370;-66
2022/09/08 04:44:48;;;;;;;;;4.00;4.00;;;;;;;;5037027;28;45387;-66
2022/09/08 04:47:13;;;;;;;;;4.67;3.67;;;;;;;;5049074;28;45323;-66
2022/09/08 04:49:38;;;;;;;;;2.67;2.67;;;;;;;;5043493;28;45361;-65
2022/09/08 04:52:03;;;;;;;;;4.00;3.00;;;;;;;;5043806;28;45305;-65
2022/09/08 04:54:30;;;;;;;;;3.00;3.00;;;;;;;;5050593;28;45511;-65
2022/09/08 04:56:55;;;;;;;;;2.00;2.00;;;;;;;;5059890;28;45283;-66
2022/09/08 04:59:20;;;;;;;;;5.33;3.00;;;;;;;;5043451;28;46742;-65
2022/09/08 05:01:45;;;;;;;;;3.00;2.67;;;;;;;;5040223;28;45156;-65
2022/09/08 05:04:11;;;;;;;;;3.67;3.00;;;;;;;;5043859;28;45539;-66
2022/09/08 05:06:36;;;;;;;;;2.00;2.00;;;;;;;;5036388;28;46567;-65
2022/09/08 05:09:02;;;;;;;;;4.00;2.00;;;;;;;;5044063;28;46240;-66
2022/09/08 05:11:28;;;;;;;;;3.67;3.00;;;;;;;;5055146;28;46024;-66
2022/09/08 05:13:54;;;;;;;;;6.00;4.67;;;;;;;;5061165;28;45460;-65
2022/09/08 05:16:21;;;;;;;;;2.00;2.00;;;;;;;;5037653;28;45604;-66
2022/09/08 05:18:47;;;;;;;;;6.00;3.00;;;;;;;;5040449;28;45409;-67
2022/09/08 05:21:12;;;;;;;;;5.00;3.33;;;;;;;;5035792;28;45364;-66
2022/09/08 05:23:38;;;;;;;;;3.67;3.67;;;;;;;;5056937;28;45425;-65
2022/09/08 05:26:06;;;;;;;;;3.67;3.00;;;;;;;;5043887;28;45304;-65
2022/09/08 05:28:33;;;;;;;;;6.00;4.00;;;;;;;;5042642;28;45691;-67
2022/09/08 05:30:59;;;;;;;;;6.00;4.33;;;;;;;;5038219;28;45582;-66
2022/09/08 05:33:24;;;;;;;;;4.33;4.00;;;;;;;;5037603;28;45470;-66
2022/09/08 05:35:49;;;;;;;;;4.00;4.00;;;;;;;;5034959;28;45396;-66
2022/09/08 05:38:15;;;;;;;;;8.33;4.00;;;;;;;;5042645;28;45881;-65
2022/09/08 05:40:40;;;;;;;;;5.33;4.00;;;;;;;;5032936;28;45180;-65
2022/09/08 05:43:05;;;;;;;;;2.00;2.00;;;;;;;;5041298;28;45364;-65
2022/09/08 05:45:31;;;;;;;;;3.00;3.00;;;;;;;;5043730;28;45565;-65
2022/09/08 05:47:56;;;;;;;;;4.33;3.33;;;;;;;;5042726;28;45305;-65
2022/09/08 05:50:21;;;;;;;;;5.00;2.67;;;;;;;;5041754;28;45445;-64
2022/09/08 05:52:46;;;;;;;;;5.00;3.67;;;;;;;;5043538;28;45239;-66
2022/09/08 05:55:13;;;;;;;;;4.67;3.00;;;;;;;;5042871;28;45634;-66
2022/09/08 05:57:39;;;;;;;;;5.33;4.00;;;;;;;;5041210;28;45625;-66
2022/09/08 06:00:05;;;;;;;;;2.33;2.33;;;;;;;;5039884;28;45172;-67
2022/09/08 06:02:31;;;;;;;;;2.33;2.33;;;;;;;;5040471;28;45262;-66
2022/09/08 06:04:56;;;;;;;;;1.33;1.33;;;;;;;;5038394;28;45316;-66
2022/09/08 06:07:21;;;;;;;;;5.00;4.00;;;;;;;;5038095;28;45353;-66
2022/09/08 06:09:46;;;;;;;;;4.00;4.00;;;;;;;;5052178;28;45521;-66
2022/09/08 06:12:11;;;;;;;;;3.00;3.00;;;;;;;;5042735;28;45262;-66
2022/09/08 06:14:36;;;;;;;;;4.00;4.00;;;;;;;;5036039;28;45586;-66
2022/09/08 06:17:02;;;;;;;;;3.00;3.00;;;;;;;;5041001;28;45714;-66
2022/09/08 06:19:27;;;;;;;;;3.00;3.00;;;;;;;;5030709;28;46191;-67
2022/09/08 06:21:52;;;;;;;;;5.33;3.00;;;;;;;;5040319;28;45163;-66
2022/09/08 06:24:17;;;;;;;;;2.33;2.33;;;;;;;;5042875;28;45483;-65
2022/09/08 06:27:01;;;;;;;;;4.67;3.00;;;;;;;;5042635;28;45667;-65
2022/09/08 06:29:35;;;;;;;;;5.00;4.00;;;;;;;;5040679;28;45365;-65
2022/09/08 06:32:03;;;;;;;;;3.67;3.67;;;;;;;;5038001;28;45422;-66
2022/09/08 06:34:31;;;;;;;;;4.00;4.00;;;;;;;;5050988;28;45483;-65
2022/09/08 06:37:01;;;;;;;;;6.67;2.67;;;;;;;;5035196;28;45365;-65
2022/09/08 06:39:36;;;;;;;;;3.33;3.33;;;;;;;;5038076;28;45416;-65
2022/09/08 06:42:10;;;;;;;;;6.33;3.00;;;;;;;;5033450;28;45441;-66
2022/09/08 06:44:38;;;;;;;;;4.50;4.50;;;;;;;;5054885;28;45607;-66
2022/09/08 06:47:09;;;;;;;;;4.00;3.00;;;;;;;;5041693;28;45502;-67
2022/09/08 06:49:36;;;;;;;;;6.33;4.00;;;;;;;;5039520;28;45352;-66
2022/09/08 06:52:14;;;;;;;;;5.00;5.00;;;;;;;;5042847;28;45266;-66
2022/09/08 06:54:49;;;;;;;;;4.00;4.00;;;;;;;;5040071;28;45401;-66
2022/09/08 06:57:30;;;;;;;;;6.00;4.00;;;;;;;;5032662;28;46150;-66
2022/09/08 06:59:55;;;;;;;;;3.00;3.00;;;;;;;;5039095;28;45354;-67
2022/09/08 07:02:20;;;;;;;;;6.33;3.00;;;;;;;;5039294;28;45140;-66
2022/09/08 07:04:48;;;;;;;;;4.00;2.67;;;;;;;;5037291;28;45430;-64
2022/09/08 07:07:24;;;;;;;;;4.00;4.00;;;;;;;;5028842;28;46266;-64
2022/09/08 07:09:49;;;;;;;;;4.00;3.00;;;;;;;;5044930;28;47508;-66
2022/09/08 07:12:26;;;;;;;;;7.33;6.33;;;;;;;;5034012;28;45324;-67
2022/09/08 07:15:03;;;;;;;;;7.00;4.00;;;;;;;;5031739;28;45398;-66
2022/09/08 07:17:29;;;;;;;;;4.67;4.00;;;;;;;;5029569;28;45557;-66
2022/09/08 07:19:55;;;;;;;;;6.67;5.00;;;;;;;;5041770;28;45314;-66
2022/09/08 07:22:27;;;;;;;;;3.00;3.00;;;;;;;;5042185;28;45488;-64
2022/09/08 07:24:56;;;;;;;;;4.67;3.00;;;;;;;;5041902;28;45427;-66
2022/09/08 07:27:23;;;;;;;;;5.67;3.67;;;;;;;;5041764;28;46149;-65
2022/09/08 07:29:50;;;;;;;;;8.67;6.00;;;;;;;;5040174;28;45588;-66
2022/09/08 07:32:20;;;;;;;;;5.33;5.00;;;;;;;;5038053;28;45342;-66
2022/09/08 07:34:52;;;;;;;;;7.00;4.00;;;;;;;;5039151;28;45362;-66
2022/09/08 07:37:25;;;;;;;;;3.67;3.00;;;;;;;;5033682;28;46329;-66
2022/09/08 07:39:56;;;;;;;;;15.33;5.00;;;;;;;;5037980;28;45331;-66
2022/09/08 07:42:21;;;;;;;;;8.00;5.33;;;;;;;;5033743;28;45254;-66
2022/09/08 07:44:48;;;;;;;;;4.00;4.00;;;;;;;;5036618;28;45487;-66
2022/09/08 07:47:26;;;;;;;;;5.00;3.67;;;;;;;;5041880;28;45377;-66
2022/09/08 07:49:51;;;;;;;;;3.67;3.67;;;;;;;;5039512;28;45346;-65
2022/09/08 07:52:31;;;;;;;;;5.00;5.00;;;;;;;;5041623;28;45389;-66
2022/09/08 07:55:08;;;;;;;;;7.67;6.33;;;;;;;;5039116;28;45180;-66
2022/09/08 07:57:50;;;;;;;;;2.00;0.00;;;;;;;;5041415;28;45418;-66
2022/09/08 08:00:18;;;;;;;;;6.67;4.33;;;;;;;;5038690;28;45396;-66
2022/09/08 08:02:46;;;;;;;;;3.33;2.33;;;;;;;;5041167;28;45290;-66
2022/09/08 08:05:23;;;;;;;;;5.00;5.00;;;;;;;;5036367;28;45286;-65
2022/09/08 08:07:58;;;;;;;;;4.67;4.67;;;;;;;;5034545;28;48412;-64
2022/09/08 08:10:29;;;;;;;;;4.00;4.00;;;;;;;;5034944;28;45424;-65
2022/09/08 08:13:10;;;;;;;;;7.00;5.33;;;;;;;;5040725;28;45534;-64
2022/09/08 08:15:45;;;;;;;;;6.67;4.00;;;;;;;;5035393;28;45227;-66
2022/09/08 08:18:20;;;;;;;;;5.33;4.33;;;;;;;;5040591;28;46462;-65
2022/09/08 08:21:03;;;;;;;;;6.67;5.00;;;;;;;;5033887;28;45302;-66
2022/09/08 08:23:29;;;;;;;;;2.67;2.67;;;;;;;;5040725;28;45524;-65
2022/09/08 08:26:04;;;;;;;;;2.33;1.00;;;;;;;;5032977;28;46125;-66
2022/09/08 08:28:36;;;;;;;;;2.00;2.00;;;;;;;;5047112;28;47002;-65
2022/09/08 08:31:19;;;;;;;;;4.33;3.00;;;;;;;;5039648;28;45456;-66
2022/09/08 08:33:51;;;;;;;;;5.33;2.33;;;;;;;;5034119;28;45452;-65
2022/09/08 08:36:20;;;;;;;;;5.67;2.67;;;;;;;;5040273;28;45518;-65
2022/09/08 08:38:47;;;;;;;;;10.00;4.33;;;;;;;;5026219;28;48702;-65
2022/09/08 08:41:22;;;;;;;;;4.67;4.00;;;;;;;;5033375;28;45588;-66
2022/09/08 08:43:47;;;;;;;;;4.00;4.00;;;;;;;;5038662;28;45349;-66
2022/09/08 08:46:18;;;;;;;;;4.33;3.33;;;;;;;;5031741;28;45387;-65
2022/09/08 08:48:58;;;;;;;;;5.67;4.67;;;;;;;;5039549;28;46605;-66
2022/09/08 08:51:29;;;;;;;;;6.33;5.33;;;;;;;;5036540;28;45391;-66
2022/09/08 08:54:10;;;;;;;;;5.00;4.67;;;;;;;;5053978;28;45385;-66
2022/09/08 08:56:44;;;;;;;;;9.33;4.67;;;;;;;;5041231;28;45177;-64
2022/09/08 08:59:15;;;;;;;;;6.00;3.33;;;;;;;;5039965;28;45261;-64
2022/09/08 09:01:40;;;;;;;;;1.67;1.67;;;;;;;;5037516;28;45362;-65
2022/09/08 09:04:05;;;;;;;;;3.25;3.25;;;;;;;;5039874;28;45332;-65
2022/09/08 09:06:42;;;;;;;;;6.00;4.67;;;;;;;;5034318;28;45428;-65
2022/09/08 09:09:26;;;;;;;;;5.00;3.00;;;;;;;;5039757;28;45596;-65
2022/09/08 09:12:24;;;;;;;;;6.67;5.00;;;;;;;;5040091;28;45289;-65
2022/09/08 09:14:52;;;;;;;;;6.67;2.67;;;;;;;;4999670;28;45555;-67
2022/09/08 09:17:20;;;;;;;;;8.00;3.67;;;;;;;;5040779;28;45691;-65
2022/09/08 09:20:03;;;;;;;;;3.67;3.00;;;;;;;;5033591;28;46140;-65
2022/09/08 09:22:48;;;;;;;;;2.67;1.67;;;;;;;;5037973;28;45530;-65
2022/09/08 09:25:27;;;;;;;;;3.33;3.33;;;;;;;;5040724;28;45238;-66
2022/09/08 09:28:11;;;;;;;;;3.00;3.00;;;;;;;;5040008;28;45357;-65
2022/09/08 09:31:06;;;;;;;;;5.00;3.67;;;;;;;;5034922;28;45414;-67
2022/09/08 09:33:50;;;;;;;;;6.67;4.00;;;;;;;;5025511;28;45529;-65
2022/09/08 09:36:39;;;;;;;;;5.33;5.00;;;;;;;;5024522;28;45367;-65
2022/09/08 09:39:04;;;;;;;;;0.00;0.00;;;;;;;;5033138;28;45501;-65
2022/09/08 09:41:52;;;;;;;;;3.00;3.00;;;;;;;;5035594;28;45543;-65
2022/09/08 09:44:21;;;;;;;;;5.67;4.00;;;;;;;;5042602;28;45251;-66
2022/09/08 09:46:46;;;;;;;;;5.00;4.33;;;;;;;;5035288;28;45397;-65
2022/09/08 09:49:33;;;;;;;;;5.00;4.67;;;;;;;;5045251;28;45667;-65
2022/09/08 09:52:16;;;;;;;;;5.67;4.33;;;;;;;;5041656;28;46589;-65
2022/09/08 09:54:42;;;;;;;;;5.00;3.67;;;;;;;;5042662;28;45391;-66
2022/09/08 09:57:16;;;;;;;;;5.00;4.00;;;;;;;;5036976;28;45353;-66
2022/09/08 09:59:59;;;;;;;;;4.33;4.33;;;;;;;;5038393;28;45391;-66
2022/09/08 10:02:34;;;;;;;;;3.33;3.33;;;;;;;;5032982;28;46554;-66
2022/09/08 10:04:59;;;;;;;;;4.33;4.33;;;;;;;;5038261;28;45384;-65
2022/09/08 10:07:38;;;;;;;;;4.00;4.00;;;;;;;;5039092;28;45434;-64
2022/09/08 10:10:23;;;;;;;;;5.67;4.00;;;;;;;;5036849;28;46015;-65
2022/09/08 10:12:55;;;;;;;;;4.00;3.67;;;;;;;;5036034;28;45357;-65
2022/09/08 10:15:23;;;;;;;;;6.67;2.67;;;;;;;;5036036;28;45373;-66
2022/09/08 10:17:48;;;;;;;;;3.33;3.33;;;;;;;;5043194;28;45399;-66
2022/09/08 10:20:13;;;;;;;;;3.67;3.00;;;;;;;;5036287;28;45370;-66
2022/09/08 10:22:41;;;;;;;;;6.00;3.00;;;;;;;;5039431;28;46567;-66
2022/09/08 10:25:12;;;;;;;;;5.00;4.00;;;;;;;;5037943;28;45376;-65
2022/09/08 10:27:56;;;;;;;;;2.00;2.00;;;;;;;;5043598;28;45388;-66
2022/09/08 10:30:31;;;;;;;;;7.33;4.67;;;;;;;;5039977;28;45395;-66
2022/09/08 10:32:56;;;;;;;;;5.33;4.00;;;;;;;;5041961;28;46310;-66
2022/09/08 10:35:25;;;;;;;;;3.75;3.00;;;;;;;;5037880;28;45432;-66
2022/09/08 10:37:56;;;;;;;;;5.67;3.00;;;;;;;;5055668;28;45396;-66
2022/09/08 10:40:21;;;;;;;;;3.33;2.33;;;;;;;;5035374;28;45592;-66
2022/09/08 10:42:48;;;;;;;;;4.67;3.67;;;;;;;;5037762;28;46517;-66
2022/09/08 10:45:21;;;;;;;;;6.67;4.00;;;;;;;;5042699;28;45373;-65
2022/09/08 10:47:46;;;;;;;;;5.33;2.67;;;;;;;;5030892;28;45505;-65
2022/09/08 10:50:18;;;;;;;;;4.00;2.33;;;;;;;;5040971;28;45558;-65
2022/09/08 10:52:43;;;;;;;;;2.00;2.00;;;;;;;;5030132;28;46726;-66
2022/09/08 10:55:30;;;;;;;;;6.00;5.00;;;;;;;;5042626;28;45218;-66
2022/09/08 10:58:14;;;;;;;;;4.00;4.00;;;;;;;;5040784;28;45307;-66
2022/09/08 11:00:48;;;;;;;;;3.00;3.00;;;;;;;;5042067;28;45595;-65
2022/09/08 11:03:25;;;;;;;;;6.00;3.00;;;;;;;;5039814;28;45436;-66
2022/09/08 11:05:51;;;;;;;;;4.00;1.33;;;;;;;;5036456;28;45463;-65
2022/09/08 11:08:36;;;;;;;;;5.00;2.00;;;;;;;;5038615;28;45302;-66
2022/09/08 11:11:01;;;;;;;;;1.67;1.67;;;;;;;;5035502;28;45487;-66
2022/09/08 11:13:56;;;;;;;;;5.00;3.00;;;;;;;;5052597;28;46753;-66
2022/09/08 11:16:38;;;;;;;;;5.67;5.67;;;;;;;;5028144;28;45575;-65
2022/09/08 11:19:22;;;;;;;;;8.00;6.00;;;;;;;;5035254;28;45404;-65
2022/09/08 11:22:06;;;;;;;;;2.00;2.00;;;;;;;;5038407;28;46082;-65
2022/09/08 11:24:38;;;;;;;;;3.00;1.33;;;;;;;;5041409;28;46211;-65
2022/09/08 11:27:16;;;;;;;;;6.00;3.00;;;;;;;;5042006;28;45396;-66
2022/09/08 11:29:42;;;;;;;;;5.00;3.00;;;;;;;;5034740;28;45189;-66
2022/09/08 11:32:15;;;;;;;;;1.33;1.33;;;;;;;;5037769;28;45347;-65
2022/09/08 11:34:59;;;;;;;;;3.00;2.00;;;;;;;;5038180;28;45329;-66
2022/09/08 11:37:33;;;;;;;;;2.00;2.00;;;;;;;;5047409;28;45383;-66
2022/09/08 11:40:05;;;;;;;;;3.00;2.00;;;;;;;;5040251;28;45320;-66
2022/09/08 11:42:48;;;;;;;;;3.33;1.00;;;;;;;;5041968;28;45273;-66
2022/09/08 11:45:32;;;;;;;;;1.00;1.00;;;;;;;;5040420;28;45380;-65
2022/09/08 11:48:24;;;;;;;;;2.00;1.33;;;;;;;;5042059;28;45316;-66
2022/09/08 11:51:02;;;;;;;;;2.00;2.00;;;;;;;;5049610;28;45371;-66
2022/09/08 11:53:42;;;;;;;;;1.00;1.00;;;;;;;;5056877;28;45610;-66
2022/09/08 11:56:18;;;;;;;;;1.00;1.00;;;;;;;;5041738;28;45463;-66
2022/09/08 11:58:50;;;;;;;;;4.00;1.00;;;;;;;;5030517;28;45402;-65
2022/09/08 12:01:27;;;;;;;;;2.00;2.00;;;;;;;;5033968;28;45326;-65
2022/09/08 12:03:52;;;;;;;;;1.00;1.00;;;;;;;;5030708;28;45637;-65
2022/09/08 12:06:26;;;;;;;;;0.75;0.75;;;;;;;;5034580;28;45532;-65
2022/09/08 12:09:11;;;;;;;;;2.00;0.67;;;;;;;;5031652;28;45447;-65
2022/09/08 12:11:55;;;;;;;;;2.33;2.00;;;;;;;;5035459;28;45321;-66
2022/09/08 12:14:20;;;;;;;;;2.00;1.00;;;;;;;;5038663;28;45360;-65
2022/09/08 12:16:51;;;;;;;;;1.67;1.67;;;;;;;;5037859;28;46196;-66
2022/09/08 12:19:19;;;;;;;;;1.00;1.00;;;;;;;;5041653;28;45389;-66
2022/09/08 12:21:52;;;;;;;;;3.33;3.33;;;;;;;;5042583;28;45546;-66
2022/09/08 12:24:27;;;;;;;;;1.00;1.00;;;;;;;;5041962;28;45306;-65
2022/09/08 12:27:01;;;;;;;;;1.00;1.00;;;;;;;;5027732;28;47422;-66
2022/09/08 12:29:38;;;;;;;;;1.00;1.00;;;;;;;;5039229;28;45322;-66
2022/09/08 12:32:06;;;;;;;;;0.67;0.67;;;;;;;;5037498;28;45546;-65
2022/09/08 12:34:46;;;;;;;;;3.67;1.00;;;;;;;;5051203;28;45422;-66
2022/09/08 12:37:13;;;;;;;;;2.00;1.00;;;;;;;;5033953;28;45259;-66
2022/09/08 12:39:57;;;;;;;;;1.00;1.00;;;;;;;;5040809;28;45480;-65
2022/09/08 12:42:25;;;;;;;;;2.33;2.33;;;;;;;;5034379;28;45608;-66
2022/09/08 12:45:04;;;;;;;;;2.00;2.00;;;;;;;;5039389;28;45349;-66
2022/09/08 12:47:32;;;;;;;;;2.67;1.00;;;;;;;;5042390;28;46239;-66
2022/09/08 12:50:02;;;;;;;;;2.00;2.00;;;;;;;;5040622;28;45441;-65
2022/09/08 12:52:39;;;;;;;;;3.67;2.00;;;;;;;;5040945;28;45320;-66
2022/09/08 12:55:21;;;;;;;;;0.67;0.67;;;;;;;;5040735;28;45347;-65
2022/09/08 12:57:54;;;;;;;;;1.00;1.00;;;;;;;;5039798;28;45638;-66
2022/09/08 13:00:22;;;;;;;;;3.00;3.00;;;;;;;;5038824;28;45408;-65
2022/09/08 13:02:56;;;;;;;;;4.00;2.00;;;;;;;;5038065;28;45412;-65
2022/09/08 13:05:21;;;;;;;;;3.33;1.00;;;;;;;;5036748;28;45390;-65
2022/09/08 13:07:59;;;;;;;;;5.67;2.00;;;;;;;;5030816;28;47046;-65
2022/09/08 13:10:34;;;;;;;;;1.00;1.00;;;;;;;;5035526;28;45304;-65
2022/09/08 13:13:08;;;;;;;;;2.00;1.00;;;;;;;;5045223;28;45278;-65
2022/09/08 13:15:35;;;;;;;;;1.00;1.00;;;;;;;;5041839;28;45290;-66
2022/09/08 13:18:32;;;;;;;;;0.67;0.67;;;;;;;;5042376;28;45482;-65
2022/09/08 13:21:06;;;;;;;;;0.00;0.00;;;;;;;;5010124;28;45412;-65
2022/09/08 13:23:35;;;;;;;;;1.67;1.00;;;;;;;;5041888;28;45201;-65
2022/09/08 13:26:06;;;;;;;;;2.33;1.00;;;;;;;;5041204;28;45318;-67
2022/09/08 13:28:31;;;;;;;;;1.00;0.67;;;;;;;;5044536;28;46125;-67
2022/09/08 13:31:00;;;;;;;;;2.00;1.00;;;;;;;;5038105;28;45446;-67
2022/09/08 13:33:35;;;;;;;;;2.00;1.00;;;;;;;;5044855;28;45562;-67
2022/09/08 13:36:04;;;;;;;;;2.00;2.00;;;;;;;;5037805;28;45484;-68
2022/09/08 13:38:35;;;;;;;;;1.33;1.33;;;;;;;;5042509;28;45366;-66
2022/09/08 13:41:20;;;;;;;;;2.33;2.00;;;;;;;;5033972;28;45329;-66
2022/09/08 13:43:54;;;;;;;;;1.00;1.00;;;;;;;;5043183;28;45530;-66
2022/09/08 13:46:34;;;;;;;;;1.00;1.00;;;;;;;;5041457;28;45353;-65
2022/09/08 13:49:18;;;;;;;;;2.00;1.00;;;;;;;;5042147;28;45437;-66
2022/09/08 13:51:44;;;;;;;;;4.33;1.00;;;;;;;;5044542;28;45337;-65
2022/09/08 13:54:22;;;;;;;;;1.00;1.00;;;;;;;;5044257;28;45275;-65
2022/09/08 13:57:06;;;;;;;;;1.00;1.00;;;;;;;;5040220;28;45479;-65
2022/09/08 13:59:50;;;;;;;;;1.00;1.00;;;;;;;;5042339;28;46809;-65
2022/09/08 14:02:35;;;;;;;;;3.33;0.33;;;;;;;;5039739;28;45230;-65
2022/09/08 14:05:04;;;;;;;;;0.00;0.00;;;;;;;;5037807;28;45288;-65
2022/09/08 14:07:31;;;;;;;;;1.00;1.00;;;;;;;;5038502;28;45331;-65
2022/09/08 14:10:14;;;;;;;;;2.67;1.00;;;;;;;;5036348;28;46918;-64
2022/09/08 14:12:49;;;;;;;;;1.67;1.67;;;;;;;;5039706;28;45710;-65
2022/09/08 14:15:26;;;;;;;;;0.33;0.33;;;;;;;;5035425;28;45518;-67
2022/09/08 14:17:52;;;;;;;;;1.00;1.00;;;;;;;;5043641;28;45516;-66
2022/09/08 14:20:20;;;;;;;;;6.33;2.00;;;;;;;;5042510;28;46646;-65
2022/09/08 14:23:08;;;;;;;;;1.67;1.67;;;;;;;;5042982;28;45408;-65
2022/09/08 14:25:35;;;;;;;;;1.33;1.33;;;;;;;;5050044;28;45537;-66
2022/09/08 14:28:08;;;;;;;;;2.00;2.00;;;;;;;;5041622;28;45260;-66
2022/09/08 14:30:33;;;;;;;;;1.33;1.33;;;;;;;;5035647;28;46247;-66
2022/09/08 14:33:24;;;;;;;;;1.00;1.00;;;;;;;;5042889;28;45689;-67
2022/09/08 14:35:56;;;;;;;;;2.33;1.00;;;;;;;;5034213;28;45302;-66
2022/09/08 14:38:31;;;;;;;;;0.00;0.00;;;;;;;;5039143;28;45467;-66
2022/09/08 14:40:59;;;;;;;;;1.33;1.00;;;;;;;;5041088;28;45706;-65
2022/09/08 14:43:43;;;;;;;;;1.33;0.67;;;;;;;;5037741;28;45454;-66
2022/09/08 14:46:08;;;;;;;;;1.00;1.00;;;;;;;;5043319;28;45384;-66
2022/09/08 14:48:54;;;;;;;;;1.50;1.00;;;;;;;;5042066;28;45515;-66
2022/09/08 14:51:26;;;;;;;;;2.00;1.00;;;;;;;;5040892;28;45389;-66
2022/09/08 14:53:51;;;;;;;;;1.67;1.67;;;;;;;;5055089;28;45408;-66
2022/09/08 14:56:23;;;;;;;;;0.00;0.00;;;;;;;;5043227;28;45284;-66
2022/09/08 14:58:55;;;;;;;;;2.00;0.33;;;;;;;;5043359;28;45496;-66
2022/09/08 15:01:29;;;;;;;;;4.00;2.67;;;;;;;;5037900;28;45423;-66
2022/09/08 15:04:13;;;;;;;;;0.00;0.00;;;;;;;;5043080;28;45201;-67
2022/09/08 15:06:45;;;;;;;;;1.00;1.00;;;;;;;;5039756;28;45492;-66
2022/09/08 15:09:31;;;;;;;;;1.33;1.33;;;;;;;;5042142;28;45547;-66
2022/09/08 15:11:57;;;;;;;;;0.00;0.00;;;;;;;;5037138;28;45403;-66